Little Elm, Texas
Current Conditions -  °F | °C
As of 7:50 AM on Saturday 25 Oct 2014 (Local Time) from KADS Reporting Station
Clear Clear  
Wind Chill: 66°   Ceiling: Unl
Heat Index: 66°   Visibility: 20mi
Dew Point: 57°   Wind: 8mph
Humidity: 73%   Direction: 160°SSE
Pressure: 30.13"   Gusts: NA
Location:  33.16°N, 96.93°W
Report Text: KADS 251250Z 16007KT 20SM SKC 19/14 A3013
Loading
Personal Weather Stations






























Interactive Weather Map
Tropical Storm Tracking
New forecast layout! Learn more

10-Day Weather Forecast

Advertisements
Track Severe Weather on mobile